createdAt,value
2018-10-21T00:01:51.429Z,17.73
2018-10-21T00:04:19.743Z,21.53
2018-10-21T00:06:48.107Z,17.07
2018-10-21T00:09:16.571Z,22.70
2018-10-21T00:11:44.808Z,18.43
2018-10-21T00:14:13.051Z,20.63
2018-10-21T00:16:41.414Z,19.97
2018-10-21T00:19:09.697Z,21.37
2018-10-21T00:21:38.072Z,17.90
2018-10-21T00:24:06.431Z,17.33
2018-10-21T00:26:34.976Z,19.47
2018-10-21T00:29:03.367Z,16.17
2018-10-21T00:31:31.744Z,26.23
2018-10-21T00:34:00.130Z,18.13
2018-10-21T00:36:28.485Z,16.73
2018-10-21T00:38:56.872Z,23.30
2018-10-21T00:41:25.163Z,19.90
2018-10-21T00:43:53.500Z,19.60
2018-10-21T00:46:21.853Z,16.07
2018-10-21T00:48:50.299Z,14.87
2018-10-21T00:51:18.957Z,19.60
2018-10-21T00:53:47.286Z,18.70
2018-10-21T00:56:15.615Z,16.43
2018-10-21T00:58:43.944Z,13.30
2018-10-21T01:01:12.226Z,17.47
2018-10-21T01:03:40.574Z,18.10
2018-10-21T01:06:08.899Z,16.43
2018-10-21T01:08:37.279Z,17.33
2018-10-21T01:11:05.997Z,23.07
2018-10-21T01:13:34.440Z,18.83
2018-10-21T01:16:02.751Z,18.17
2018-10-21T01:18:31.107Z,19.10
2018-10-21T01:20:59.462Z,15.70
2018-10-21T01:23:27.767Z,18.13
2018-10-21T01:25:56.085Z,17.03
2018-10-21T01:28:24.472Z,19.40
2018-10-21T01:30:52.787Z,15.07
2018-10-21T01:33:21.127Z,18.37
2018-10-21T01:35:49.437Z,16.60
2018-10-21T01:38:17.722Z,19.62
2018-10-21T01:40:48.014Z,23.83
2018-10-21T01:43:17.322Z,16.97
2018-10-21T01:45:46.038Z,20.60
2018-10-21T01:48:16.493Z,17.53
2018-10-21T01:50:44.839Z,24.23
2018-10-21T01:53:14.141Z,21.83
2018-10-21T01:55:42.503Z,22.87
2018-10-21T01:58:10.906Z,19.70
2018-10-21T02:00:39.935Z,20.00
2018-10-21T02:03:08.369Z,18.90
2018-10-21T02:05:37.203Z,16.83
2018-10-21T02:08:05.806Z,17.30
2018-10-21T02:10:34.178Z,18.87
2018-10-21T02:13:03.394Z,18.00
2018-10-21T02:15:32.097Z,18.60
2018-10-21T02:18:00.625Z,18.73
2018-10-21T02:20:29.092Z,15.17
2018-10-21T02:22:57.383Z,18.07
2018-10-21T02:25:25.749Z,20.00
2018-10-21T02:27:54.352Z,18.43
2018-10-21T02:30:25.714Z,14.37
2018-10-21T02:32:54.431Z,15.43
2018-10-21T02:35:22.907Z,15.00
2018-10-21T02:37:51.719Z,15.53
2018-10-21T02:41:33.592Z,13.40
2018-10-21T02:44:02.188Z,13.67
2018-10-21T02:46:30.574Z,16.03
2018-10-21T02:48:59.656Z,19.20
2018-10-21T02:51:27.900Z,18.20
2018-10-21T02:53:56.530Z,27.40
2018-10-21T02:56:24.732Z,14.67
2018-10-21T02:58:52.970Z,17.30
2018-10-21T03:01:21.221Z,15.13
2018-10-21T03:03:49.454Z,16.93
2018-10-21T03:06:17.651Z,13.73
2018-10-21T03:08:45.883Z,15.67
2018-10-21T03:11:14.102Z,18.57
2018-10-21T03:13:42.380Z,20.57
2018-10-21T03:16:10.583Z,17.10
2018-10-21T03:18:38.830Z,12.87
2018-10-21T03:21:07.179Z,12.87
2018-10-21T03:23:35.758Z,18.07
2018-10-21T03:26:04.131Z,14.17
2018-10-21T03:28:32.974Z,13.77
2018-10-21T03:31:01.475Z,18.43
2018-10-21T03:33:29.796Z,15.50
2018-10-21T03:35:58.050Z,17.13
2018-10-21T03:38:26.686Z,15.73
2018-10-21T03:40:54.959Z,19.57
2018-10-21T03:43:23.178Z,17.13
2018-10-21T03:45:51.425Z,17.20
2018-10-21T03:48:19.625Z,18.60
2018-10-21T03:50:47.834Z,17.60
2018-10-21T03:53:16.183Z,17.50
2018-10-21T03:55:44.629Z,15.97
2018-10-21T03:58:13.000Z,19.77
2018-10-21T04:00:41.077Z,18.93
2018-10-21T04:03:09.582Z,16.30
2018-10-21T04:05:38.042Z,15.67
2018-10-21T04:08:06.415Z,18.27
2018-10-21T04:10:34.697Z,17.03
2018-10-21T04:13:02.964Z,16.43
2018-10-21T04:15:31.242Z,18.93
2018-10-21T04:17:59.977Z,18.57
2018-10-21T04:20:28.307Z,18.93
2018-10-21T04:22:57.637Z,20.73
2018-10-21T04:25:26.846Z,19.03
2018-10-21T04:27:56.049Z,15.73
2018-10-21T04:30:33.801Z,15.47
2018-10-21T04:33:07.661Z,15.80
2018-10-21T04:35:36.060Z,19.40
2018-10-21T04:40:23.807Z,17.00
2018-10-21T04:42:52.134Z,16.53
2018-10-21T04:45:22.300Z,16.70
2018-10-21T04:47:50.595Z,22.40
2018-10-21T04:50:18.863Z,15.47
2018-10-21T04:52:47.232Z,17.30
2018-10-21T04:55:16.415Z,15.23
2018-10-21T04:57:47.422Z,13.77
2018-10-21T05:00:18.591Z,12.47
2018-10-21T05:02:46.858Z,14.73
2018-10-21T05:05:15.657Z,13.77
2018-10-21T05:07:44.187Z,18.13
2018-10-21T05:10:32.094Z,14.80
2018-10-21T05:13:00.387Z,15.53
2018-10-21T05:15:29.863Z,17.23
2018-10-21T05:17:58.195Z,16.77
2018-10-21T05:20:26.539Z,15.13
2018-10-21T05:22:54.851Z,13.33
2018-10-21T05:25:23.280Z,13.63
2018-10-21T05:27:51.532Z,18.53
2018-10-21T05:30:19.787Z,19.93
2018-10-21T05:32:48.019Z,21.33
2018-10-21T05:35:17.280Z,14.17
2018-10-21T05:37:45.598Z,16.77
2018-10-21T05:40:15.618Z,16.27
2018-10-21T05:42:44.260Z,12.70
2018-10-21T05:45:12.474Z,16.50
2018-10-21T05:47:41.073Z,13.03
2018-10-21T05:50:10.518Z,15.17
2018-10-21T05:52:39.096Z,16.63
2018-10-21T05:55:07.875Z,17.53
2018-10-21T05:57:36.170Z,18.60
2018-10-21T06:00:06.367Z,17.13
2018-10-21T06:02:34.660Z,15.70
2018-10-21T06:05:02.895Z,19.17
2018-10-21T06:07:31.170Z,16.60
2018-10-21T06:09:59.428Z,15.77
2018-10-21T06:12:27.645Z,19.27
2018-10-21T06:14:55.863Z,16.97
2018-10-21T06:17:27.331Z,19.83
2018-10-21T06:20:10.366Z,16.67
2018-10-21T06:22:41.294Z,20.80
2018-10-21T06:25:10.236Z,14.67
2018-10-21T06:27:39.101Z,19.43
2018-10-21T06:30:08.994Z,19.27
2018-10-21T06:32:37.201Z,21.03
2018-10-21T06:35:06.111Z,15.27
2018-10-21T06:37:34.638Z,18.20
2018-10-21T06:40:02.928Z,16.00
2018-10-21T06:42:31.219Z,19.90
2018-10-21T06:44:59.862Z,24.27
2018-10-21T06:47:28.426Z,18.73
2018-10-21T06:49:56.641Z,19.00
2018-10-21T06:52:24.881Z,22.93
2018-10-21T06:54:53.619Z,18.60
2018-10-21T06:57:22.281Z,16.40
2018-10-21T06:59:50.274Z,16.13
2018-10-21T07:02:18.766Z,19.70
2018-10-21T07:04:47.059Z,23.83
2018-10-21T07:07:15.315Z,17.00
2018-10-21T07:09:43.574Z,18.33
2018-10-21T07:12:11.823Z,13.53
2018-10-21T07:14:40.057Z,16.17
2018-10-21T07:17:08.277Z,14.53
2018-10-21T07:19:36.535Z,18.47
2018-10-21T07:22:04.964Z,20.57
2018-10-21T07:24:33.122Z,19.10
2018-10-21T07:27:01.305Z,13.47
2018-10-21T07:29:29.664Z,13.57
2018-10-21T07:31:57.870Z,12.57
2018-10-21T07:34:26.142Z,14.43
2018-10-21T07:36:54.363Z,16.80
2018-10-21T07:39:22.578Z,14.43
2018-10-21T07:41:50.759Z,13.67
2018-10-21T07:44:18.998Z,16.33
2018-10-21T07:46:47.220Z,16.30
2018-10-21T07:49:15.485Z,15.93
2018-10-21T07:51:43.760Z,18.07
2018-10-21T07:54:11.988Z,12.67
2018-10-21T07:56:40.225Z,16.87
2018-10-21T07:59:08.467Z,17.93
2018-10-21T08:01:37.653Z,14.83
2018-10-21T08:04:05.915Z,14.00
2018-10-21T08:06:45.501Z,15.87
2018-10-21T08:09:13.775Z,13.53
2018-10-21T08:11:41.984Z,16.63
2018-10-21T08:14:10.261Z,13.37
2018-10-21T08:16:38.498Z,19.33
2018-10-21T08:19:06.774Z,17.17
2018-10-21T08:21:35.030Z,15.90
2018-10-21T08:24:04.029Z,14.27
2018-10-21T08:26:32.289Z,13.73
2018-10-21T08:29:00.578Z,13.00
2018-10-21T08:31:28.845Z,14.33
2018-10-21T08:33:57.113Z,17.83
2018-10-21T08:36:25.337Z,16.20
2018-10-21T08:38:53.577Z,14.07
2018-10-21T08:41:21.855Z,16.17
2018-10-21T08:43:50.138Z,13.77
2018-10-21T08:46:18.495Z,33.03
2018-10-21T08:48:46.642Z,17.00
2018-10-21T08:51:14.873Z,14.47
2018-10-21T08:53:43.130Z,23.30
2018-10-21T08:56:11.379Z,13.83
2018-10-21T08:58:39.775Z,12.77
2018-10-21T09:01:08.152Z,17.33
2018-10-21T09:03:36.386Z,16.00
2018-10-21T09:06:04.728Z,14.27
2018-10-21T09:08:33.046Z,14.57
2018-10-21T09:11:01.364Z,14.60
2018-10-21T09:13:29.954Z,13.03
2018-10-21T09:15:58.250Z,16.60
2018-10-21T09:18:26.478Z,16.13
2018-10-21T09:20:54.697Z,15.40
2018-10-21T09:23:22.942Z,16.80
2018-10-21T09:25:51.223Z,11.00
2018-10-21T09:28:19.426Z,13.37
2018-10-21T09:30:47.681Z,9.90
2018-10-21T09:33:15.944Z,10.97
2018-10-21T09:35:44.345Z,13.53
2018-10-21T09:38:12.700Z,11.77
2018-10-21T09:40:41.049Z,14.20
2018-10-21T09:43:09.377Z,8.63
2018-10-21T09:45:38.061Z,13.13
2018-10-21T09:48:06.641Z,12.73
2018-10-21T09:50:35.004Z,12.90
2018-10-21T09:53:03.400Z,12.20
2018-10-21T09:55:31.764Z,13.17
2018-10-21T09:58:00.242Z,11.50
2018-10-21T10:00:33.970Z,14.67
2018-10-21T10:03:03.928Z,12.47
2018-10-21T10:05:32.325Z,10.60
2018-10-21T10:08:00.672Z,13.83
2018-10-21T10:10:29.892Z,12.50
2018-10-21T10:12:58.387Z,11.70
2018-10-21T10:15:27.550Z,10.23
2018-10-21T10:17:55.946Z,14.60
2018-10-21T10:20:24.266Z,16.67
2018-10-21T10:22:54.045Z,9.20
2018-10-21T10:25:22.361Z,13.03
2018-10-21T10:27:50.648Z,14.30
2018-10-21T10:30:18.999Z,11.47
2018-10-21T10:32:47.560Z,11.90
2018-10-21T10:35:15.925Z,13.77
2018-10-21T10:37:44.626Z,16.20
2018-10-21T10:40:13.835Z,13.80
2018-10-21T10:42:43.029Z,17.50
2018-10-21T10:45:11.389Z,10.33
2018-10-21T10:47:39.927Z,15.17
2018-10-21T10:50:09.760Z,10.10
2018-10-21T10:52:38.562Z,18.90
2018-10-21T10:55:07.202Z,11.40
2018-10-21T10:57:35.528Z,13.40
2018-10-21T11:00:07.792Z,10.67
2018-10-21T11:02:37.873Z,16.47
2018-10-21T11:05:06.719Z,14.00
2018-10-21T11:07:39.065Z,12.13
2018-10-21T11:10:08.667Z,13.97
2018-10-21T11:12:39.508Z,11.93
2018-10-21T11:15:08.253Z,10.23
2018-10-21T11:17:40.267Z,13.73
2018-10-21T11:20:10.911Z,6.83
2018-10-21T11:22:45.739Z,9.47
2018-10-21T11:25:14.065Z,7.60
2018-10-21T11:27:42.192Z,11.67
2018-10-21T11:30:10.448Z,12.47
2018-10-21T11:32:38.706Z,8.73
2018-10-21T11:35:06.995Z,10.27
2018-10-21T11:37:36.307Z,9.47
2018-10-21T11:40:05.108Z,9.07
2018-10-21T11:42:33.683Z,9.50
2018-10-21T11:45:03.543Z,10.90
2018-10-21T11:47:32.564Z,6.50
2018-10-21T11:50:01.379Z,11.57
2018-10-21T11:52:30.007Z,9.60
2018-10-21T11:54:58.828Z,8.93
2018-10-21T11:57:27.233Z,9.93
2018-10-21T11:59:55.466Z,12.63
2018-10-21T12:02:23.721Z,11.10
2018-10-21T12:04:51.975Z,8.13
2018-10-21T12:07:20.373Z,15.57
2018-10-21T12:09:48.597Z,6.43
2018-10-21T12:12:16.879Z,9.37
2018-10-21T12:14:45.151Z,5.40
2018-10-21T12:17:13.417Z,7.40
2018-10-21T12:19:41.713Z,6.97
2018-10-21T12:22:09.957Z,7.20
2018-10-21T12:24:38.238Z,7.23
2018-10-21T12:27:06.594Z,5.40
2018-10-21T12:29:34.882Z,7.37
2018-10-21T12:32:03.080Z,4.73
2018-10-21T12:34:31.371Z,4.80
2018-10-21T12:36:59.697Z,7.30
2018-10-21T12:39:28.047Z,5.53
2018-10-21T12:41:56.316Z,5.60
2018-10-21T12:44:24.528Z,3.37
2018-10-21T12:46:52.879Z,6.53
2018-10-21T12:49:21.098Z,6.57
2018-10-21T12:51:49.396Z,4.87
2018-10-21T12:54:17.662Z,3.67
2018-10-21T12:56:45.851Z,6.60
2018-10-21T12:59:14.110Z,5.50
2018-10-21T13:01:42.393Z,6.13
2018-10-21T13:04:10.703Z,3.60
2018-10-21T13:06:39.031Z,7.40
2018-10-21T13:09:07.947Z,8.20
2018-10-21T13:11:36.211Z,7.17
2018-10-21T13:14:04.474Z,8.50
2018-10-21T13:16:32.758Z,6.80
2018-10-21T13:19:01.013Z,5.10
2018-10-21T13:21:29.278Z,4.00
2018-10-21T13:23:57.470Z,4.50
2018-10-21T13:26:25.742Z,5.80
2018-10-21T13:28:54.094Z,8.20
2018-10-21T13:31:22.214Z,5.23
2018-10-21T13:33:50.504Z,8.27
2018-10-21T13:36:18.750Z,4.60
2018-10-21T13:38:46.987Z,6.33
2018-10-21T13:41:15.178Z,4.87
2018-10-21T13:43:43.435Z,7.30
2018-10-21T13:46:11.687Z,3.27
2018-10-21T13:48:39.884Z,5.30
2018-10-21T13:51:08.067Z,5.83
2018-10-21T13:53:36.368Z,5.73
2018-10-21T13:56:04.603Z,4.87
2018-10-21T13:58:32.834Z,4.43
2018-10-21T14:01:01.171Z,3.40
2018-10-21T14:03:29.343Z,6.93
2018-10-21T14:05:57.589Z,10.07
2018-10-21T14:08:25.797Z,4.70
2018-10-21T14:10:53.999Z,6.77
2018-10-21T14:13:22.183Z,6.53
2018-10-21T14:15:50.817Z,6.17
2018-10-21T14:18:19.160Z,8.03
2018-10-21T14:20:47.431Z,8.53
2018-10-21T14:23:15.863Z,6.17
2018-10-21T14:25:44.170Z,6.20
2018-10-21T14:28:12.540Z,5.03
2018-10-21T14:30:40.826Z,6.10
2018-10-21T14:33:09.135Z,6.83
2018-10-21T14:35:37.319Z,5.57
2018-10-21T14:38:05.628Z,6.90
2018-10-21T14:40:33.814Z,5.83
2018-10-21T14:43:02.030Z,5.97
2018-10-21T14:45:30.346Z,6.40
2018-10-21T14:47:58.524Z,5.97
2018-10-21T14:50:26.770Z,6.73
2018-10-21T14:52:55.094Z,10.30
2018-10-21T14:55:23.236Z,6.97
2018-10-21T14:57:51.561Z,7.03
2018-10-21T15:00:19.956Z,6.90
2018-10-21T15:02:48.098Z,8.87
2018-10-21T15:05:16.345Z,12.23
2018-10-21T15:07:46.030Z,5.23
2018-10-21T15:10:14.364Z,5.40
2018-10-21T15:12:42.525Z,4.17
2018-10-21T15:15:11.394Z,7.73
2018-10-21T15:17:39.890Z,9.40
2018-10-21T15:20:10.150Z,7.70
2018-10-21T15:22:38.335Z,6.30
2018-10-21T15:25:07.877Z,5.77
2018-10-21T15:27:36.143Z,6.40
2018-10-21T15:30:05.720Z,5.63
2018-10-21T15:32:33.904Z,7.17
2018-10-21T15:35:02.925Z,6.53
2018-10-21T15:37:31.904Z,5.00
2018-10-21T15:40:00.146Z,5.63
2018-10-21T15:42:28.827Z,5.03
2018-10-21T15:44:57.144Z,5.37
2018-10-21T15:47:25.406Z,6.50
2018-10-21T15:49:53.690Z,8.27
2018-10-21T15:52:21.986Z,9.07
2018-10-21T15:54:50.335Z,8.23
2018-10-21T15:57:18.574Z,3.87
2018-10-21T15:59:46.846Z,6.10
2018-10-21T16:02:15.142Z,4.43
2018-10-21T16:04:43.347Z,4.93
2018-10-21T16:07:11.614Z,5.90
2018-10-21T16:09:39.825Z,4.07
2018-10-21T16:12:09.011Z,7.83
2018-10-21T16:14:37.889Z,3.60
2018-10-21T16:17:06.092Z,7.03
2018-10-21T16:19:34.454Z,7.33
2018-10-21T16:22:02.875Z,6.03
2018-10-21T16:24:31.114Z,5.03
2018-10-21T16:26:59.386Z,6.63
2018-10-21T16:29:27.655Z,7.57
2018-10-21T16:31:56.065Z,4.00
2018-10-21T16:34:24.189Z,5.57
2018-10-21T16:36:52.499Z,6.07
2018-10-21T16:39:20.834Z,4.30
2018-10-21T16:41:48.963Z,5.70
2018-10-21T16:44:17.218Z,6.60
2018-10-21T16:46:45.454Z,7.47
2018-10-21T16:49:13.733Z,7.37
2018-10-21T16:51:42.047Z,5.73
2018-10-21T16:54:10.314Z,4.50
2018-10-21T16:56:38.614Z,4.87
2018-10-21T16:59:06.836Z,7.93
2018-10-21T17:01:35.153Z,8.13
2018-10-21T17:04:03.450Z,8.73
2018-10-21T17:06:31.752Z,9.50
2018-10-21T17:09:00.055Z,11.70
2018-10-21T17:11:28.169Z,9.93
2018-10-21T17:13:56.446Z,9.03
2018-10-21T17:16:24.715Z,6.63
2018-10-21T17:18:52.937Z,7.10
2018-10-21T17:21:21.131Z,8.17
2018-10-21T17:23:49.326Z,8.87
2018-10-21T17:26:17.566Z,4.87
2018-10-21T17:28:45.777Z,6.97
2018-10-21T17:31:14.352Z,8.27
2018-10-21T17:33:42.499Z,9.80
2018-10-21T17:36:10.755Z,34.07
2018-10-21T17:38:38.983Z,10.30
2018-10-21T17:41:07.037Z,6.53
2018-10-21T17:43:35.338Z,13.67
2018-10-21T17:46:03.559Z,7.33
2018-10-21T17:48:31.869Z,8.83
2018-10-21T17:51:00.234Z,9.63
2018-10-21T17:53:28.458Z,12.80
2018-10-21T17:55:56.679Z,9.17
2018-10-21T17:58:24.990Z,8.97
2018-10-21T18:00:53.146Z,7.73
2018-10-21T18:03:21.401Z,11.40
2018-10-21T18:05:50.071Z,13.27
2018-10-21T18:08:18.355Z,8.47
2018-10-21T18:10:46.769Z,7.13
2018-10-21T18:13:15.081Z,6.83
2018-10-21T18:15:43.218Z,10.23
2018-10-21T18:18:11.422Z,7.73
2018-10-21T18:20:39.744Z,11.30
2018-10-21T18:23:07.926Z,11.20
2018-10-21T18:25:36.171Z,13.10
2018-10-21T18:28:04.484Z,14.50
2018-10-21T18:30:32.623Z,5.67
2018-10-21T18:33:00.972Z,11.53
2018-10-21T18:35:29.056Z,8.00
2018-10-21T18:37:57.290Z,8.53
2018-10-21T18:40:25.679Z,8.60
2018-10-21T18:42:53.930Z,12.13
2018-10-21T18:45:22.043Z,7.30
2018-10-21T18:47:50.322Z,10.07
2018-10-21T18:50:18.587Z,8.73
2018-10-21T18:52:46.786Z,8.40
2018-10-21T18:55:15.083Z,10.80
2018-10-21T18:57:43.682Z,10.47
2018-10-21T19:00:14.473Z,14.27
2018-10-21T19:02:42.896Z,14.60
2018-10-21T19:05:11.850Z,10.33
2018-10-21T19:07:40.193Z,11.10
2018-10-21T19:10:10.850Z,10.97
2018-10-21T19:12:45.530Z,19.07
2018-10-21T19:15:14.063Z,11.23
2018-10-21T19:17:42.553Z,10.80
2018-10-21T19:20:13.818Z,9.57
2018-10-21T19:22:42.089Z,13.23
2018-10-21T19:25:12.227Z,15.43
2018-10-21T19:27:40.503Z,12.47
2018-10-21T19:30:10.081Z,12.53
2018-10-21T19:32:39.592Z,15.57
2018-10-21T19:35:08.809Z,11.57
2018-10-21T19:37:37.053Z,12.23
2018-10-21T19:40:06.134Z,11.37
2018-10-21T19:42:34.448Z,13.93
2018-10-21T19:45:02.704Z,13.57
2018-10-21T19:47:30.998Z,11.47
2018-10-21T19:49:59.321Z,12.47
2018-10-21T19:52:27.586Z,10.10
2018-10-21T19:54:56.695Z,8.77
2018-10-21T19:57:24.864Z,8.67
2018-10-21T19:59:53.107Z,14.70
2018-10-21T20:02:21.973Z,14.93
2018-10-21T20:04:50.863Z,11.17
2018-10-21T20:07:19.108Z,11.63
2018-10-21T20:09:47.443Z,11.97
2018-10-21T20:12:15.814Z,10.37
2018-10-21T20:14:44.180Z,11.57
2018-10-21T20:17:12.531Z,9.03
2018-10-21T20:19:40.826Z,10.97
2018-10-21T20:22:10.948Z,10.33
2018-10-21T20:24:39.466Z,8.20
2018-10-21T20:27:08.460Z,11.67
2018-10-21T20:29:36.765Z,11.83
2018-10-21T20:32:05.630Z,11.00
2018-10-21T20:34:33.876Z,8.53
2018-10-21T20:37:02.061Z,7.70
2018-10-21T20:39:30.337Z,7.93
2018-10-21T20:41:58.595Z,10.10
2018-10-21T20:44:27.633Z,9.43
2018-10-21T20:46:55.846Z,8.60
2018-10-21T20:49:24.116Z,6.00
2018-10-21T20:51:52.429Z,10.10
2018-10-21T20:54:20.657Z,12.17
2018-10-21T20:56:48.888Z,12.90
2018-10-21T20:59:17.216Z,10.43
2018-10-21T21:01:45.811Z,10.70
2018-10-21T21:04:14.093Z,9.00
2018-10-21T21:06:42.250Z,7.80
2018-10-21T21:09:10.471Z,8.13
2018-10-21T21:11:38.750Z,10.27
2018-10-21T21:14:06.983Z,7.50
2018-10-21T21:16:35.294Z,8.87
2018-10-21T21:19:03.568Z,10.10
2018-10-21T21:21:31.796Z,6.50
2018-10-21T21:24:00.056Z,10.27
2018-10-21T21:26:28.304Z,12.33
2018-10-21T21:28:56.563Z,10.47
2018-10-21T21:31:24.810Z,8.47
2018-10-21T21:33:53.316Z,9.87
2018-10-21T21:36:21.562Z,8.03
2018-10-21T21:38:49.862Z,12.30
2018-10-21T21:41:18.208Z,9.27
2018-10-21T21:43:46.438Z,12.40
2018-10-21T21:46:14.770Z,7.77
2018-10-21T21:48:42.935Z,9.57
2018-10-21T21:51:11.149Z,6.90
2018-10-21T21:53:39.427Z,7.80
2018-10-21T21:56:07.697Z,11.20
2018-10-21T21:58:36.022Z,14.83
2018-10-21T22:01:04.339Z,9.30
2018-10-21T22:03:32.532Z,10.27
2018-10-21T22:06:00.822Z,10.37
2018-10-21T22:08:29.087Z,8.13
2018-10-21T22:10:57.326Z,9.80
2018-10-21T22:13:25.584Z,7.33
2018-10-21T22:15:53.838Z,9.53
2018-10-21T22:18:22.041Z,9.77
2018-10-21T22:20:50.349Z,14.17
2018-10-21T22:23:18.837Z,7.17
2018-10-21T22:25:47.407Z,10.20
2018-10-21T22:28:15.780Z,12.47
2018-10-21T22:30:43.973Z,7.73
2018-10-21T22:33:12.235Z,11.08
2018-10-21T22:35:40.506Z,8.63
2018-10-21T22:38:08.750Z,10.07
2018-10-21T22:40:36.951Z,7.73
2018-10-21T22:43:05.541Z,6.97
2018-10-21T22:45:33.767Z,6.40
2018-10-21T22:48:02.004Z,5.67
2018-10-21T22:50:30.238Z,9.70
2018-10-21T22:52:58.453Z,9.20
2018-10-21T22:55:26.699Z,8.47
2018-10-21T22:57:54.971Z,8.20
2018-10-21T23:00:23.285Z,9.43
2018-10-21T23:02:52.898Z,9.43
2018-10-21T23:05:21.463Z,7.67
2018-10-21T23:07:49.730Z,9.63
2018-10-21T23:10:18.506Z,5.27
2018-10-21T23:12:46.671Z,8.53
2018-10-21T23:15:14.891Z,6.97
2018-10-21T23:17:43.127Z,7.23
2018-10-21T23:20:11.372Z,9.90
2018-10-21T23:22:39.564Z,10.17
2018-10-21T23:25:07.778Z,9.73
2018-10-21T23:27:35.990Z,7.80
2018-10-21T23:30:04.483Z,6.43
2018-10-21T23:32:32.612Z,7.63
2018-10-21T23:35:00.817Z,7.33
2018-10-21T23:37:29.041Z,7.47
2018-10-21T23:39:57.436Z,10.40
2018-10-21T23:42:25.646Z,10.17
2018-10-21T23:44:53.867Z,9.43
2018-10-21T23:47:22.121Z,7.13
2018-10-21T23:49:50.391Z,10.13
2018-10-21T23:52:18.735Z,6.90
2018-10-21T23:54:46.866Z,7.90
2018-10-21T23:57:15.135Z,5.43
2018-10-21T23:59:43.385Z,7.93
